KFAF/FAF METAR and TAF weather

Enter ICAO airport designator
Station Type Date Time Source
KFAF METAR 2022/01/28 23:56 UTC NOAA

KFAF 282356Z 00000KT 10SM OVC060 04/M06 A2990 RMK AO2A SLP129 T00401060 10072 20040 55006 $


Station Type Date Time Source
KFAF Decoded METAR 2022/01/28 23:56 UTC NOAA

Fort Eustis / Felker, VA, United States (KFAF) 37-08N 076-37W
Jan 28, 2022 - 06:56 PM EST / 2022.01.28 2356 UTC
Wind: Calm:0
Visibility: 10 mile(s):0
Sky conditions: overcast
Temperature: 39.2 F (4.0 C)
Dew Point: 21.2 F (-6.0 C)
Relative Humidity: 48%
Pressure (altimeter): 29.9 in. Hg (1012 hPa)
Pressure tendency: 0.02 inches (0.6 hPa) lower than three hours ago
ob: KFAF 282356Z 00000KT 10SM OVC060 04/M06 A2990 RMK AO2A SLP129 T00401060 10072 20040 55006
cycle: 0

Station Type Date Time Source
KFAF TAF 2022/01/28 19:22 UTC NOAA

TAF KFAF 281900Z 2819/3001 02009KT 9999 BKN100 BKN120 QNH2987INS
BECMG 2900/2901 01009KT 9000 -RASN BKN010 OVC035 QNH2981INS
BECMG 2902/2903 36012KT 3200 -SN OVC007 QNH2974INS
BECMG 2904/2905 35012G18KT 1200 SN OVC005 QNH2962INS
BECMG 2912/2913 32015G30KT 9999 NSW BKN010 OVC020 QNH2972INS
BECMG 2918/2919 31015G30KT 9999 FEW120 QNH2979INS
BECMG 2921/2922 32012G18KT 9999 SKC QNH2986INS TX07/2819Z TNM03/2913Z

Example: see airport list